Time;durP1;ratioP1;P1;durP2;ratioP2;P2;SDS_P1;SDS_P2;PMS_P1;PMS_P2;Temp;Humidity;BMP_temperature;BMP_pressure;BME280_temperature;BME280_humidity;BME280_pressure;Samples;Min_cycle;Max_cycle;Signal;HPM_P1;HPM_P2
2022/08/17 00:00:18;;;;;;;8.38;5.47;;;;;;;;;;1706564;83;21013;-68
2022/08/17 00:02:55;;;;;;;10.55;5.58;;;;;;;;;;1677595;85;21565;-68
2022/08/17 00:05:21;;;;;;;8.90;6.15;;;;;;;;;;1711183;83;21650;-67
2022/08/17 00:07:47;;;;;;;8.75;4.90;;;;;;;;;;1711115;83;21512;-68
2022/08/17 00:10:15;;;;;;;10.60;5.62;;;;;;;;;;1706128;83;21037;-68
2022/08/17 00:12:41;;;;;;;8.93;4.90;;;;;;;;;;1678425;85;20951;-68
2022/08/17 00:15:07;;;;;;;10.55;6.10;;;;;;;;;;1711482;83;21030;-68
2022/08/17 00:17:33;;;;;;;9.70;5.90;;;;;;;;;;1673641;85;21033;-68
2022/08/17 00:19:59;;;;;;;9.23;5.28;;;;;;;;;;1710118;83;21046;-67
2022/08/17 00:22:25;;;;;;;8.40;5.15;;;;;;;;;;1672802;85;21549;-67
2022/08/17 00:24:51;;;;;;;8.88;5.30;;;;;;;;;;1709017;83;21084;-67
2022/08/17 00:27:17;;;;;;;8.55;5.37;;;;;;;;;;1711340;83;21078;-66
2022/08/17 00:29:44;;;;;;;10.18;5.22;;;;;;;;;;1710333;83;21164;-65
2022/08/17 00:32:11;;;;;;;15.18;6.15;;;;;;;;;;1675084;85;21510;-66
2022/08/17 00:34:37;;;;;;;9.90;6.30;;;;;;;;;;1704135;83;21086;-67
2022/08/17 00:37:03;;;;;;;8.58;4.58;;;;;;;;;;1677143;85;21044;-65
2022/08/17 00:39:29;;;;;;;6.37;5.00;;;;;;;;;;1711808;83;21018;-66
2022/08/17 00:41:56;;;;;;;10.90;6.05;;;;;;;;;;1674244;85;21104;-65
2022/08/17 00:44:22;;;;;;;10.13;4.97;;;;;;;;;;1677286;85;21533;-66
2022/08/17 00:46:48;;;;;;;8.60;5.60;;;;;;;;;;1711046;83;21558;-66
2022/08/17 00:49:14;;;;;;;8.58;5.70;;;;;;;;;;1706909;83;21029;-65
2022/08/17 00:51:41;;;;;;;8.80;5.85;;;;;;;;;;1675285;85;21061;-66
2022/08/17 00:54:09;;;;;;;9.40;6.22;;;;;;;;;;1710415;83;21596;-66
2022/08/17 00:56:38;;;;;;;9.58;5.62;;;;;;;;;;1673675;85;21521;-66
2022/08/17 00:59:04;;;;;;;7.45;5.33;;;;;;;;;;1670561;84;21022;-66
2022/08/17 01:04:12;;;;;;;7.65;5.08;;;;;;;;;;1719449;78;21087;-65
2022/08/17 01:06:39;;;;;;;9.45;6.17;;;;;;;;;;1649560;85;21568;-65
2022/08/17 01:09:07;;;;;;;12.68;6.40;;;;;;;;;;1681452;85;21070;-65
2022/08/17 01:11:35;;;;;;;9.03;5.67;;;;;;;;;;1680320;85;21031;-64
2022/08/17 01:14:01;;;;;;;9.68;5.50;;;;;;;;;;1690455;84;21073;-64
2022/08/17 01:16:27;;;;;;;7.50;5.42;;;;;;;;;;1675845;84;20997;-64
2022/08/17 01:18:54;;;;;;;7.50;6.20;;;;;;;;;;1680443;85;21422;-65
2022/08/17 01:21:29;;;;;;;9.33;6.20;;;;;;;;;;1651360;85;21076;-65
2022/08/17 01:23:55;;;;;;;7.10;5.33;;;;;;;;;;1677547;84;21095;-64
2022/08/17 01:26:21;;;;;;;7.53;5.30;;;;;;;;;;1700906;84;21014;-65
2022/08/17 01:28:47;;;;;;;7.60;5.75;;;;;;;;;;1699365;84;22105;-65
2022/08/17 01:31:13;;;;;;;9.55;5.80;;;;;;;;;;1706248;84;21006;-65
2022/08/17 01:33:39;;;;;;;6.75;5.05;;;;;;;;;;1686180;84;21000;-65
2022/08/17 01:36:06;;;;;;;9.50;5.35;;;;;;;;;;1679150;84;21045;-65
2022/08/17 01:38:33;;;;;;;8.70;6.15;;;;;;;;;;1668144;84;21297;-65
2022/08/17 01:40:59;;;;;;;10.98;6.35;;;;;;;;;;1681115;84;21040;-65
2022/08/17 01:43:30;;;;;;;7.90;5.22;;;;;;;;;;1667804;85;21056;-64
2022/08/17 01:45:58;;;;;;;8.98;5.35;;;;;;;;;;1651936;85;21505;-65
2022/08/17 01:48:26;;;;;;;11.50;5.30;;;;;;;;;;1692089;84;20991;-65
2022/08/17 01:50:52;;;;;;;7.03;5.37;;;;;;;;;;1691518;84;21092;-65
2022/08/17 01:53:20;;;;;;;8.58;5.78;;;;;;;;;;1652968;86;21033;-64
2022/08/17 01:55:48;;;;;;;9.05;5.58;;;;;;;;;;1688877;83;21014;-65
2022/08/17 01:58:13;;;;;;;9.25;5.72;;;;;;;;;;1700572;83;21025;-64
2022/08/17 02:00:39;;;;;;;7.55;5.65;;;;;;;;;;1677977;84;21531;-64
2022/08/17 02:03:06;;;;;;;9.23;5.12;;;;;;;;;;1692148;84;21138;-64
2022/08/17 02:05:34;;;;;;;9.45;5.05;;;;;;;;;;1708203;82;21061;-65
2022/08/17 02:08:00;;;;;;;11.12;5.53;;;;;;;;;;1693123;84;21070;-65
2022/08/17 02:10:27;;;;;;;9.58;6.08;;;;;;;;;;1702421;83;21023;-65
2022/08/17 02:12:53;;;;;;;8.45;5.17;;;;;;;;;;1702964;84;21013;-65
2022/08/17 02:15:19;;;;;;;12.18;5.37;;;;;;;;;;1707556;82;21016;-65
2022/08/17 02:17:46;;;;;;;7.90;4.95;;;;;;;;;;1708029;83;21022;-65
2022/08/17 02:20:12;;;;;;;8.88;5.97;;;;;;;;;;1704421;82;21008;-66
2022/08/17 02:22:39;;;;;;;8.00;5.00;;;;;;;;;;1712091;83;21107;-66
2022/08/17 02:25:05;;;;;;;8.75;5.70;;;;;;;;;;1701338;84;21071;-66
2022/08/17 02:27:31;;;;;;;7.25;4.92;;;;;;;;;;1699793;82;20973;-66
2022/08/17 02:29:57;;;;;;;7.75;5.12;;;;;;;;;;1706873;82;21076;-66
2022/08/17 02:32:23;;;;;;;8.03;5.40;;;;;;;;;;1700163;82;21015;-66
2022/08/17 02:34:50;;;;;;;11.73;5.83;;;;;;;;;;1705416;82;22172;-66
2022/08/17 02:37:17;;;;;;;7.92;5.42;;;;;;;;;;1710344;82;21096;-66
2022/08/17 02:39:44;;;;;;;9.38;5.50;;;;;;;;;;1707831;82;20997;-65
2022/08/17 02:42:11;;;;;;;7.62;6.28;;;;;;;;;;1709961;84;21069;-65
2022/08/17 02:44:38;;;;;;;7.92;6.37;;;;;;;;;;1705495;83;21100;-66
2022/08/17 02:47:05;;;;;;;9.03;6.62;;;;;;;;;;1709795;82;21508;-66
2022/08/17 02:49:32;;;;;;;8.55;6.15;;;;;;;;;;1706652;83;21129;-66
2022/08/17 02:51:58;;;;;;;10.55;6.20;;;;;;;;;;1717924;82;21016;-66
2022/08/17 02:54:24;;;;;;;8.88;6.10;;;;;;;;;;1703932;83;21068;-67
2022/08/17 02:56:50;;;;;;;11.33;6.08;;;;;;;;;;1705478;83;21289;-66
2022/08/17 02:59:17;;;;;;;8.68;6.55;;;;;;;;;;1706946;82;21033;-66
2022/08/17 03:01:43;;;;;;;8.70;6.40;;;;;;;;;;1710655;83;21012;-66
2022/08/17 03:04:09;;;;;;;9.70;5.80;;;;;;;;;;1705892;83;21527;-65
2022/08/17 03:06:36;;;;;;;8.18;5.83;;;;;;;;;;1710546;82;21027;-65
2022/08/17 03:09:02;;;;;;;11.05;6.12;;;;;;;;;;1709125;83;21037;-65
2022/08/17 03:11:28;;;;;;;9.78;6.12;;;;;;;;;;1707499;83;21077;-65
2022/08/17 03:13:55;;;;;;;7.12;5.87;;;;;;;;;;1705345;84;20989;-65
2022/08/17 03:16:21;;;;;;;7.47;6.37;;;;;;;;;;1707210;83;21487;-65
2022/08/17 03:18:47;;;;;;;8.25;5.65;;;;;;;;;;1724452;82;20981;-65
2022/08/17 03:21:13;;;;;;;10.32;5.42;;;;;;;;;;1704940;82;20989;-65
2022/08/17 03:23:41;;;;;;;8.13;4.97;;;;;;;;;;1732100;82;21054;-65
2022/08/17 03:26:08;;;;;;;9.03;6.10;;;;;;;;;;1733806;82;21013;-65
2022/08/17 03:28:34;;;;;;;9.28;5.15;;;;;;;;;;1737210;82;21044;-65
2022/08/17 03:31:00;;;;;;;6.60;5.17;;;;;;;;;;1732009;82;21036;-65
2022/08/17 03:33:26;;;;;;;7.17;5.47;;;;;;;;;;1722612;82;20983;-65
2022/08/17 03:35:52;;;;;;;9.45;6.05;;;;;;;;;;1716750;82;21036;-66
2022/08/17 03:38:18;;;;;;;7.55;5.40;;;;;;;;;;1706289;83;21014;-65
2022/08/17 03:40:45;;;;;;;8.18;5.62;;;;;;;;;;1707998;82;21562;-65
2022/08/17 03:43:11;;;;;;;10.15;5.95;;;;;;;;;;1649717;87;21059;-65
2022/08/17 03:56:42;;;;;;;8.28;5.65;;;;;;;;;;1705036;82;21038;-66
2022/08/17 03:59:18;;;;;;;8.13;6.28;;;;;;;;;;1707005;84;20995;-66
2022/08/17 04:01:46;;;;;;;7.28;5.87;;;;;;;;;;1714758;82;21072;-66
2022/08/17 04:04:12;;;;;;;10.53;5.60;;;;;;;;;;1640033;87;21184;-66
2022/08/17 04:06:38;;;;;;;7.72;5.20;;;;;;;;;;1664335;84;21141;-66
2022/08/17 04:09:04;;;;;;;7.55;5.37;;;;;;;;;;1682666;85;21080;-67
2022/08/17 04:11:30;;;;;;;8.35;5.78;;;;;;;;;;1667372;86;21036;-67
2022/08/17 04:13:57;;;;;;;9.48;6.50;;;;;;;;;;1717780;83;21006;-67
2022/08/17 04:16:24;;;;;;;9.00;6.15;;;;;;;;;;1715459;82;21540;-67
2022/08/17 04:18:50;;;;;;;9.90;5.95;;;;;;;;;;1715452;82;21092;-66
2022/08/17 04:21:17;;;;;;;9.85;5.58;;;;;;;;;;1713035;83;21063;-67
2022/08/17 04:23:43;;;;;;;9.73;6.90;;;;;;;;;;1709563;83;21507;-66
2022/08/17 04:26:09;;;;;;;8.83;5.83;;;;;;;;;;1712733;82;21028;-66
2022/08/17 04:28:35;;;;;;;9.83;5.70;;;;;;;;;;1710302;82;20956;-65
2022/08/17 04:31:01;;;;;;;9.33;7.05;;;;;;;;;;1701494;83;21033;-64
2022/08/17 04:33:28;;;;;;;7.40;5.47;;;;;;;;;;1705781;83;21663;-63
2022/08/17 04:35:56;;;;;;;10.25;5.40;;;;;;;;;;1701794;83;21035;-64
2022/08/17 04:38:29;;;;;;;7.60;5.60;;;;;;;;;;1711196;82;21089;-64
2022/08/17 04:43:41;;;;;;;6.78;4.87;;;;;;;;;;1714595;83;21025;-64
2022/08/17 04:46:09;;;;;;;7.85;5.08;;;;;;;;;;1711994;83;21510;-66
2022/08/17 04:48:36;;;;;;;11.28;6.30;;;;;;;;;;1706927;83;21057;-65
2022/08/17 04:51:04;;;;;;;10.68;5.87;;;;;;;;;;1728850;82;21047;-65
2022/08/17 04:53:30;;;;;;;8.90;5.80;;;;;;;;;;1712679;83;21105;-65
2022/08/17 04:55:57;;;;;;;9.13;4.87;;;;;;;;;;1716681;82;21003;-66
2022/08/17 04:58:23;;;;;;;8.85;4.80;;;;;;;;;;1714719;83;21000;-64
2022/08/17 05:00:50;;;;;;;8.28;4.28;;;;;;;;;;1719174;83;22231;-64
2022/08/17 05:03:16;;;;;;;9.43;5.22;;;;;;;;;;1721604;83;21072;-65
2022/08/17 05:05:48;;;;;;;6.97;4.97;;;;;;;;;;1704905;83;21037;-66
2022/08/17 05:08:10;;;;;;;9.83;5.08;;;;;;;;;;1700272;83;21069;-66
2022/08/17 05:10:37;;;;;;;6.33;4.45;;;;;;;;;;1703916;83;21057;-65
2022/08/17 05:13:05;;;;;;;10.90;4.58;;;;;;;;;;1705868;83;21047;-67
2022/08/17 05:15:32;;;;;;;9.95;5.28;;;;;;;;;;1692727;83;21037;-68
2022/08/17 05:17:58;;;;;;;10.40;5.60;;;;;;;;;;1706008;84;21009;-67
2022/08/17 05:20:24;;;;;;;8.65;5.72;;;;;;;;;;1696532;83;21028;-67
2022/08/17 05:22:51;;;;;;;9.58;4.72;;;;;;;;;;1706061;83;21026;-67
2022/08/17 05:25:18;;;;;;;7.00;5.17;;;;;;;;;;1701770;83;21021;-67
2022/08/17 05:27:44;;;;;;;9.73;6.80;;;;;;;;;;1707174;82;21469;-64
2022/08/17 05:30:11;;;;;;;8.18;5.10;;;;;;;;;;1699207;82;21516;-64
2022/08/17 05:32:37;;;;;;;6.45;5.25;;;;;;;;;;1686511;84;21595;-64
2022/08/17 05:35:04;;;;;;;9.65;5.87;;;;;;;;;;1681150;84;21028;-64
2022/08/17 05:37:30;;;;;;;7.33;5.12;;;;;;;;;;1684429;84;21014;-66
2022/08/17 05:39:56;;;;;;;6.78;4.90;;;;;;;;;;1663315;85;21068;-66
2022/08/17 05:42:23;;;;;;;6.08;5.03;;;;;;;;;;1664944;85;21068;-66
2022/08/17 05:44:49;;;;;;;8.50;5.35;;;;;;;;;;1678440;84;21033;-66
2022/08/17 05:47:15;;;;;;;7.70;5.22;;;;;;;;;;1665039;85;21035;-67
2022/08/17 05:49:41;;;;;;;8.38;5.33;;;;;;;;;;1665528;85;21599;-70
2022/08/17 05:52:09;;;;;;;9.20;4.78;;;;;;;;;;1662149;86;21074;-68
2022/08/17 05:54:38;;;;;;;8.95;4.95;;;;;;;;;;1677599;84;21069;-68
2022/08/17 05:57:22;;;;;;;9.00;6.00;;;;;;;;;;1657885;84;21598;-68
2022/08/17 06:00:00;;;;;;;8.10;5.97;;;;;;;;;;1667551;84;21534;-68
2022/08/17 06:02:43;;;;;;;6.20;4.65;;;;;;;;;;1677761;85;21668;-68
2022/08/17 06:05:13;;;;;;;8.40;5.85;;;;;;;;;;1678085;84;21007;-68
2022/08/17 06:07:51;;;;;;;9.18;6.85;;;;;;;;;;1685797;83;22146;-68
2022/08/17 06:10:35;;;;;;;13.53;8.78;;;;;;;;;;1715476;82;21532;-68
2022/08/17 06:13:06;;;;;;;12.75;7.90;;;;;;;;;;1711768;83;21898;-66
2022/08/17 06:15:34;;;;;;;9.60;7.83;;;;;;;;;;1713231;83;21028;-67
2022/08/17 06:18:01;;;;;;;8.70;5.72;;;;;;;;;;1714819;82;21029;-67
2022/08/17 06:20:29;;;;;;;8.48;6.22;;;;;;;;;;1709117;82;20986;-66
2022/08/17 06:22:57;;;;;;;9.08;5.90;;;;;;;;;;1713161;82;21012;-66
2022/08/17 06:25:24;;;;;;;11.75;6.45;;;;;;;;;;1709379;83;21005;-67
2022/08/17 06:27:55;;;;;;;9.73;6.72;;;;;;;;;;1721170;82;21068;-66
2022/08/17 06:30:24;;;;;;;8.68;7.12;;;;;;;;;;1691936;83;21580;-66
2022/08/17 06:32:51;;;;;;;8.53;6.53;;;;;;;;;;1705303;82;21528;-66
2022/08/17 06:35:24;;;;;;;6.80;4.28;;;;;;;;;;1715027;82;21511;-66
2022/08/17 06:37:59;;;;;;;9.63;4.78;;;;;;;;;;1704473;84;21512;-67
2022/08/17 06:40:44;;;;;;;10.28;4.58;;;;;;;;;;1709566;82;21350;-67
2022/08/17 06:43:12;;;;;;;6.87;5.20;;;;;;;;;;1714153;83;21528;-67
2022/08/17 06:45:40;;;;;;;7.22;5.17;;;;;;;;;;1705389;82;21028;-68
2022/08/17 06:48:06;;;;;;;6.50;4.60;;;;;;;;;;1716882;82;21028;-67
2022/08/17 06:50:34;;;;;;;7.58;4.90;;;;;;;;;;1714634;82;21017;-67
2022/08/17 06:53:20;;;;;;;7.97;4.60;;;;;;;;;;1710100;83;21045;-67
2022/08/17 06:56:05;;;;;;;8.73;5.25;;;;;;;;;;1712265;83;21445;-67
2022/08/17 06:58:32;;;;;;;5.47;4.35;;;;;;;;;;1713602;83;21373;-67
2022/08/17 07:01:00;;;;;;;8.80;6.00;;;;;;;;;;1717322;83;21023;-67
2022/08/17 07:03:44;;;;;;;6.78;4.70;;;;;;;;;;1696859;83;21108;-67
2022/08/17 07:06:12;;;;;;;7.58;5.15;;;;;;;;;;1720888;83;21635;-67
2022/08/17 07:08:43;;;;;;;9.30;4.97;;;;;;;;;;1707741;83;20995;-67
2022/08/17 07:11:13;;;;;;;6.95;4.80;;;;;;;;;;1713059;83;21513;-67
2022/08/17 07:13:57;;;;;;;7.62;5.50;;;;;;;;;;1689554;83;20992;-67
2022/08/17 07:16:28;;;;;;;7.25;5.28;;;;;;;;;;1692205;84;21514;-67
2022/08/17 07:18:55;;;;;;;7.35;5.05;;;;;;;;;;1702888;82;21045;-67
2022/08/17 07:21:26;;;;;;;8.23;5.65;;;;;;;;;;1694305;83;21418;-67
2022/08/17 07:23:59;;;;;;;6.47;4.55;;;;;;;;;;1705169;83;22129;-66
2022/08/17 07:26:24;;;;;;;9.83;5.35;;;;;;;;;;1704241;83;21096;-66
2022/08/17 07:28:50;;;;;;;7.60;5.50;;;;;;;;;;1708371;83;21001;-67
2022/08/17 07:31:16;;;;;;;7.40;5.65;;;;;;;;;;1711639;83;21022;-67
2022/08/17 07:33:44;;;;;;;7.58;4.62;;;;;;;;;;1703736;82;21016;-67
2022/08/17 07:36:18;;;;;;;8.63;5.25;;;;;;;;;;1711629;82;21243;-67
2022/08/17 07:38:47;;;;;;;9.23;5.33;;;;;;;;;;1704613;83;20979;-66
2022/08/17 07:41:13;;;;;;;9.60;5.58;;;;;;;;;;1708313;83;21655;-67
2022/08/17 07:43:41;;;;;;;16.85;10.60;;;;;;;;;;1707796;83;20996;-66
2022/08/17 07:49:11;;;;;;;6.95;5.37;;;;;;;;;;1709166;83;21525;-67
2022/08/17 07:51:39;;;;;;;8.45;5.45;;;;;;;;;;1708679;83;20981;-67
2022/08/17 07:54:18;;;;;;;13.35;5.25;;;;;;;;;;1710722;83;21017;-67
2022/08/17 07:56:45;;;;;;;6.90;5.22;;;;;;;;;;1708564;83;21647;-68
2022/08/17 07:59:17;;;;;;;8.70;4.95;;;;;;;;;;1707954;83;21407;-67
2022/08/17 08:01:57;;;;;;;8.58;5.50;;;;;;;;;;1709860;83;21092;-67
2022/08/17 08:04:41;;;;;;;7.90;4.95;;;;;;;;;;1712677;83;21086;-67
2022/08/17 08:07:09;;;;;;;18.65;13.85;;;;;;;;;;1692499;83;21096;-67
2022/08/17 08:09:39;;;;;;;31.12;27.10;;;;;;;;;;1705243;84;21553;-67
2022/08/17 08:12:28;;;;;;;29.25;22.35;;;;;;;;;;1713740;84;21096;-67
2022/08/17 08:14:58;;;;;;;12.65;8.53;;;;;;;;;;1699902;83;21561;-67
2022/08/17 08:17:25;;;;;;;9.43;5.92;;;;;;;;;;1701335;83;22127;-67
2022/08/17 08:19:52;;;;;;;11.22;5.97;;;;;;;;;;1698807;83;21083;-67
2022/08/17 08:22:19;;;;;;;10.65;5.50;;;;;;;;;;1699891;83;21323;-67
2022/08/17 08:24:56;;;;;;;8.83;5.03;;;;;;;;;;1704250;82;21001;-67
2022/08/17 08:27:41;;;;;;;9.18;5.25;;;;;;;;;;1708597;83;21076;-67
2022/08/17 08:30:09;;;;;;;10.28;6.17;;;;;;;;;;1707733;84;21022;-67
2022/08/17 08:32:41;;;;;;;9.90;5.83;;;;;;;;;;1702768;83;21049;-67
2022/08/17 08:35:21;;;;;;;7.97;5.50;;;;;;;;;;1707466;82;21044;-67
2022/08/17 08:37:50;;;;;;;11.43;5.78;;;;;;;;;;1711256;83;21060;-67
2022/08/17 08:40:33;;;;;;;9.13;5.25;;;;;;;;;;1708708;83;21080;-67
2022/08/17 08:43:03;;;;;;;9.98;6.17;;;;;;;;;;1716898;83;21084;-67
2022/08/17 08:45:32;;;;;;;7.67;5.62;;;;;;;;;;1705248;82;21069;-66
2022/08/17 08:48:00;;;;;;;8.60;6.00;;;;;;;;;;1713709;83;21461;-65
2022/08/17 08:50:46;;;;;;;13.48;6.55;;;;;;;;;;1710254;83;22227;-65
2022/08/17 08:53:14;;;;;;;9.48;5.72;;;;;;;;;;1640787;86;21044;-66
2022/08/17 08:56:00;;;;;;;7.35;4.97;;;;;;;;;;1639947;86;21075;-68
2022/08/17 08:58:37;;;;;;;9.75;5.72;;;;;;;;;;1645261;85;21061;-66
2022/08/17 09:01:07;;;;;;;8.73;5.92;;;;;;;;;;1643308;86;21039;-66
2022/08/17 09:03:34;;;;;;;14.43;6.65;;;;;;;;;;1646647;85;21074;-69
2022/08/17 09:06:05;;;;;;;9.45;7.08;;;;;;;;;;1689021;84;21575;-67
2022/08/17 09:08:50;;;;;;;11.65;6.40;;;;;;;;;;1680170;85;21094;-66
2022/08/17 09:11:21;;;;;;;9.43;6.65;;;;;;;;;;1680238;83;21073;-66
2022/08/17 09:14:06;;;;;;;9.05;6.75;;;;;;;;;;1690497;83;21053;-67
2022/08/17 09:16:39;;;;;;;7.90;6.67;;;;;;;;;;1691808;83;21098;-65
2022/08/17 09:19:15;;;;;;;15.63;12.43;;;;;;;;;;1692377;83;21505;-67
2022/08/17 09:21:43;;;;;;;30.90;22.45;;;;;;;;;;1686606;83;21092;-67
2022/08/17 09:24:23;;;;;;;26.77;21.15;;;;;;;;;;1693017;83;21072;-67
2022/08/17 09:27:03;;;;;;;14.43;9.83;;;;;;;;;;1683985;83;21040;-67
2022/08/17 09:29:33;;;;;;;11.00;7.22;;;;;;;;;;1636665;85;21080;-67
2022/08/17 09:32:07;;;;;;;9.45;6.95;;;;;;;;;;1662899;85;21119;-67
2022/08/17 09:34:38;;;;;;;13.58;6.78;;;;;;;;;;1680656;84;21085;-68
2022/08/17 09:37:06;;;;;;;12.10;6.65;;;;;;;;;;1712901;83;21060;-68
2022/08/17 09:39:34;;;;;;;9.70;5.78;;;;;;;;;;1680159;84;21500;-68
2022/08/17 09:42:07;;;;;;;9.43;5.55;;;;;;;;;;1709058;83;21028;-67
2022/08/17 09:44:45;;;;;;;36.10;32.30;;;;;;;;;;1704741;83;21073;-69
2022/08/17 09:47:13;;;;;;;47.48;37.53;;;;;;;;;;1701414;83;21048;-69
2022/08/17 09:49:46;;;;;;;28.75;23.18;;;;;;;;;;1719108;83;21093;-68
2022/08/17 09:52:14;;;;;;;14.83;9.30;;;;;;;;;;1709156;82;21080;-69
2022/08/17 09:54:40;;;;;;;11.25;6.75;;;;;;;;;;1714544;83;20997;-69
2022/08/17 09:57:21;;;;;;;15.60;6.45;;;;;;;;;;1713816;83;21026;-69
2022/08/17 10:00:14;;;;;;;15.55;6.65;;;;;;;;;;1716469;83;21093;-68
2022/08/17 10:02:54;;;;;;;10.53;6.40;;;;;;;;;;1646679;85;21028;-68
2022/08/17 10:05:22;;;;;;;13.35;7.45;;;;;;;;;;1682055;84;21065;-69
2022/08/17 10:07:54;;;;;;;12.73;6.45;;;;;;;;;;1718274;83;21026;-67
2022/08/17 10:10:24;;;;;;;8.75;6.08;;;;;;;;;;1734077;83;21034;-67
2022/08/17 10:12:52;;;;;;;14.93;6.92;;;;;;;;;;1728676;82;21024;-66
2022/08/17 10:15:23;;;;;;;14.23;7.03;;;;;;;;;;1717735;83;21554;-67
2022/08/17 10:18:06;;;;;;;12.78;6.22;;;;;;;;;;1711392;83;21603;-66
2022/08/17 10:20:49;;;;;;;11.77;6.27;;;;;;;;;;1714127;83;21028;-67
2022/08/17 10:26:12;;;;;;;12.47;7.93;;;;;;;;;;1700778;83;20997;-66
2022/08/17 10:28:49;;;;;;;11.18;7.60;;;;;;;;;;1709993;83;20981;-67
2022/08/17 10:31:22;;;;;;;11.30;7.45;;;;;;;;;;1714105;83;21052;-67
2022/08/17 10:33:52;;;;;;;11.80;6.35;;;;;;;;;;1711912;83;21023;-68
2022/08/17 10:36:20;;;;;;;10.15;6.42;;;;;;;;;;1714716;83;21016;-68
2022/08/17 10:38:47;;;;;;;8.93;6.30;;;;;;;;;;1714930;83;21053;-67
2022/08/17 10:41:20;;;;;;;14.23;6.87;;;;;;;;;;1715472;83;21580;-67
2022/08/17 10:44:06;;;;;;;10.50;6.17;;;;;;;;;;1717398;83;21568;-68
2022/08/17 10:46:41;;;;;;;11.28;6.60;;;;;;;;;;1709138;83;21031;-69
2022/08/17 10:49:15;;;;;;;15.93;7.15;;;;;;;;;;1715256;83;21001;-69
2022/08/17 10:51:41;;;;;;;72.03;64.42;;;;;;;;;;1712956;83;21021;-67
2022/08/17 10:54:25;;;;;;;49.85;38.53;;;;;;;;;;1711513;83;21025;-67
2022/08/17 10:56:52;;;;;;;19.30;14.18;;;;;;;;;;1712546;83;21009;-68
2022/08/17 10:59:35;;;;;;;13.20;9.28;;;;;;;;;;1710790;83;21141;-67
2022/08/17 11:02:15;;;;;;;12.60;7.92;;;;;;;;;;1717187;83;20974;-68
2022/08/17 11:04:48;;;;;;;14.87;7.40;;;;;;;;;;1715007;83;21001;-68
2022/08/17 11:08:34;;;;;;;12.82;7.47;;;;;;;;;;1804821;78;22975;-67
2022/08/17 11:11:09;;;;;;;13.30;7.20;;;;;;;;;;1760635;80;21012;-68
2022/08/17 11:13:39;;;;;;;10.88;6.42;;;;;;;;;;1767766;80;21650;-68
2022/08/17 11:16:07;;;;;;;9.78;6.37;;;;;;;;;;1768137;80;21508;-68
2022/08/17 11:18:45;;;;;;;12.45;7.72;;;;;;;;;;1783598;80;21032;-67
2022/08/17 11:21:22;;;;;;;10.70;6.92;;;;;;;;;;1769689;80;21072;-67
2022/08/17 11:23:56;;;;;;;11.73;7.17;;;;;;;;;;1768327;80;21011;-67
2022/08/17 11:26:24;;;;;;;12.40;7.85;;;;;;;;;;1757455;80;21067;-67
2022/08/17 11:28:53;;;;;;;10.75;7.58;;;;;;;;;;1760601;80;21020;-67
2022/08/17 11:31:21;;;;;;;13.32;7.58;;;;;;;;;;1747099;80;21048;-69
2022/08/17 11:33:49;;;;;;;13.32;8.53;;;;;;;;;;1780705;80;21050;-67
2022/08/17 11:36:32;;;;;;;11.57;7.50;;;;;;;;;;1778793;80;21032;-67
2022/08/17 11:39:03;;;;;;;10.98;7.30;;;;;;;;;;1774455;80;21067;-68
2022/08/17 11:41:50;;;;;;;10.32;7.70;;;;;;;;;;1767576;80;21508;-67
2022/08/17 11:44:18;;;;;;;10.70;6.22;;;;;;;;;;1775971;80;21099;-67
2022/08/17 11:52:44;;;;;;;14.38;7.97;;;;;;;;;;1786541;80;21036;-68
2022/08/17 11:55:11;;;;;;;10.80;6.60;;;;;;;;;;1772282;79;21000;-68
2022/08/17 11:57:44;;;;;;;14.93;7.65;;;;;;;;;;1754395;80;21274;-68
2022/08/17 12:00:29;;;;;;;11.25;8.28;;;;;;;;;;1734123;81;20999;-68
2022/08/17 12:03:14;;;;;;;14.65;7.05;;;;;;;;;;1743069;81;20988;-67
2022/08/17 12:05:42;;;;;;;9.23;6.65;;;;;;;;;;1733789;81;21571;-67
2022/08/17 12:08:10;;;;;;;12.37;7.75;;;;;;;;;;1715667;82;21155;-67
2022/08/17 12:10:39;;;;;;;11.12;6.97;;;;;;;;;;1712746;82;21092;-67
2022/08/17 12:13:07;;;;;;;22.25;15.20;;;;;;;;;;1712857;82;21560;-66
2022/08/17 12:15:34;;;;;;;74.50;66.45;;;;;;;;;;1706186;82;21621;-67
2022/08/17 12:18:01;;;;;;;147.17;124.33;;;;;;;;;;1630693;86;21174;-67
2022/08/17 12:20:29;;;;;;;18.00;12.82;;;;;;;;;;1650416;85;21067;-67
2022/08/17 12:23:12;;;;;;;13.72;10.25;;;;;;;;;;1661543;85;21028;-67
2022/08/17 12:25:42;;;;;;;10.75;7.53;;;;;;;;;;1660066;85;22538;-67
2022/08/17 12:28:19;;;;;;;11.30;7.30;;;;;;;;;;1650494;85;21092;-66
2022/08/17 12:30:47;;;;;;;11.75;7.33;;;;;;;;;;1658102;85;21546;-67
2022/08/17 12:33:13;;;;;;;9.88;7.78;;;;;;;;;;1698995;83;21618;-66
2022/08/17 12:35:39;;;;;;;18.67;7.87;;;;;;;;;;1663108;85;21516;-66
2022/08/17 12:38:07;;;;;;;10.72;7.60;;;;;;;;;;1698493;83;21607;-67
2022/08/17 12:40:33;;;;;;;12.58;6.53;;;;;;;;;;1697818;83;21028;-67
2022/08/17 12:43:03;;;;;;;8.60;6.78;;;;;;;;;;1707612;83;21016;-67
2022/08/17 12:45:30;;;;;;;8.95;6.40;;;;;;;;;;1699530;82;20984;-66
2022/08/17 12:48:11;;;;;;;10.53;7.30;;;;;;;;;;1698806;83;21068;-67
2022/08/17 12:50:38;;;;;;;9.15;7.40;;;;;;;;;;1703549;83;21010;-68
2022/08/17 12:53:11;;;;;;;10.82;6.83;;;;;;;;;;1722852;83;21097;-67
2022/08/17 12:55:37;;;;;;;9.23;6.05;;;;;;;;;;1717969;83;21110;-66
2022/08/17 12:58:04;;;;;;;12.03;7.20;;;;;;;;;;1711396;81;21529;-67
2022/08/17 13:00:31;;;;;;;9.35;6.90;;;;;;;;;;1707125;83;21012;-68
2022/08/17 13:03:04;;;;;;;12.65;6.95;;;;;;;;;;1703852;83;21036;-67
2022/08/17 13:05:34;;;;;;;12.55;6.78;;;;;;;;;;1709102;83;21496;-67
2022/08/17 13:08:03;;;;;;;11.70;7.25;;;;;;;;;;1719277;82;21099;-64
2022/08/17 13:10:30;;;;;;;13.78;7.97;;;;;;;;;;1734430;82;21015;-65
2022/08/17 13:13:03;;;;;;;9.28;7.78;;;;;;;;;;1738657;82;21633;-65
2022/08/17 13:15:31;;;;;;;12.78;6.35;;;;;;;;;;1725455;82;21549;-65
2022/08/17 13:17:59;;;;;;;8.13;5.58;;;;;;;;;;1718782;82;22230;-65
2022/08/17 13:20:25;;;;;;;9.85;6.67;;;;;;;;;;1719259;82;21083;-66
2022/08/17 13:22:52;;;;;;;14.15;7.08;;;;;;;;;;1717954;82;20996;-65
2022/08/17 13:25:18;;;;;;;12.00;7.03;;;;;;;;;;1714258;82;21032;-65
2022/08/17 13:27:44;;;;;;;10.15;6.78;;;;;;;;;;1715579;82;21090;-66
2022/08/17 13:30:11;;;;;;;8.05;5.58;;;;;;;;;;1717470;82;21041;-66
2022/08/17 13:32:46;;;;;;;9.45;5.87;;;;;;;;;;1714553;82;21031;-66
2022/08/17 13:35:25;;;;;;;8.90;6.12;;;;;;;;;;1716476;82;21020;-66
2022/08/17 13:37:56;;;;;;;11.28;7.08;;;;;;;;;;1709187;82;21157;-66
2022/08/17 13:40:27;;;;;;;9.58;6.75;;;;;;;;;;1720042;82;21581;-67
2022/08/17 13:42:54;;;;;;;13.20;6.95;;;;;;;;;;1736760;82;20981;-67
2022/08/17 13:45:34;;;;;;;10.35;6.65;;;;;;;;;;1718689;82;21017;-66
2022/08/17 13:48:08;;;;;;;10.48;6.67;;;;;;;;;;1725692;82;21532;-66
2022/08/17 13:50:39;;;;;;;12.00;6.20;;;;;;;;;;1736096;82;21072;-66
2022/08/17 13:53:25;;;;;;;26.37;20.75;;;;;;;;;;1732515;82;21516;-67
2022/08/17 13:55:59;;;;;;;52.48;37.75;;;;;;;;;;1724947;82;22292;-66
2022/08/17 13:58:27;;;;;;;39.18;35.08;;;;;;;;;;1731983;82;21084;-66
2022/08/17 14:00:54;;;;;;;16.25;10.05;;;;;;;;;;1722949;82;21571;-66
2022/08/17 14:03:21;;;;;;;12.65;7.92;;;;;;;;;;1733180;82;20978;-66
2022/08/17 14:05:48;;;;;;;9.10;5.78;;;;;;;;;;1722535;82;21528;-66
2022/08/17 14:08:15;;;;;;;8.73;7.08;;;;;;;;;;1723101;83;21097;-66
2022/08/17 14:10:43;;;;;;;9.13;6.12;;;;;;;;;;1717502;82;20991;-66
2022/08/17 14:13:10;;;;;;;8.98;6.70;;;;;;;;;;1727620;82;21024;-65
2022/08/17 14:15:36;;;;;;;9.03;6.90;;;;;;;;;;1726062;82;21038;-66
2022/08/17 14:18:03;;;;;;;9.48;7.08;;;;;;;;;;1734693;82;21577;-66
2022/08/17 14:20:30;;;;;;;8.63;5.67;;;;;;;;;;1726197;82;21095;-65
2022/08/17 14:22:56;;;;;;;7.97;5.92;;;;;;;;;;1723962;82;20993;-66
2022/08/17 14:25:24;;;;;;;11.57;6.30;;;;;;;;;;1726343;82;21532;-66
2022/08/17 14:27:51;;;;;;;10.55;6.67;;;;;;;;;;1718175;82;21066;-65
2022/08/17 14:30:18;;;;;;;9.03;5.78;;;;;;;;;;1720768;82;21044;-65
2022/08/17 14:32:47;;;;;;;9.28;6.25;;;;;;;;;;1723253;82;21035;-66
2022/08/17 14:35:13;;;;;;;6.50;5.60;;;;;;;;;;1717818;82;21086;-65
2022/08/17 14:37:40;;;;;;;8.18;5.83;;;;;;;;;;1728134;82;21554;-66
2022/08/17 14:40:08;;;;;;;10.28;6.60;;;;;;;;;;1732621;82;21144;-66
2022/08/17 14:42:34;;;;;;;7.47;6.00;;;;;;;;;;1728885;82;20991;-66
2022/08/17 14:45:05;;;;;;;7.42;5.28;;;;;;;;;;1716525;82;21042;-66
2022/08/17 14:47:29;;;;;;;9.58;5.92;;;;;;;;;;1720991;82;21066;-67
2022/08/17 14:49:55;;;;;;;9.95;5.95;;;;;;;;;;1720870;82;21023;-67
2022/08/17 14:52:21;;;;;;;9.35;7.05;;;;;;;;;;1731311;82;21039;-66
2022/08/17 14:54:50;;;;;;;13.28;7.15;;;;;;;;;;1726062;81;21052;-67
2022/08/17 14:57:16;;;;;;;8.73;5.70;;;;;;;;;;1718106;82;21113;-65
2022/08/17 14:59:43;;;;;;;9.55;6.03;;;;;;;;;;1723578;82;20995;-65
2022/08/17 15:02:09;;;;;;;9.73;6.35;;;;;;;;;;1726162;82;21522;-65
2022/08/17 15:04:36;;;;;;;6.83;6.05;;;;;;;;;;1734861;82;21050;-66
2022/08/17 15:07:05;;;;;;;11.50;6.70;;;;;;;;;;1735347;82;21050;-67
2022/08/17 15:09:32;;;;;;;10.68;5.60;;;;;;;;;;1720268;82;21049;-66
2022/08/17 15:11:59;;;;;;;9.80;6.22;;;;;;;;;;1729114;82;21039;-67
2022/08/17 15:14:27;;;;;;;8.58;6.12;;;;;;;;;;1727421;82;21137;-67
2022/08/17 15:16:54;;;;;;;7.08;5.87;;;;;;;;;;1725005;82;21063;-66
2022/08/17 15:19:20;;;;;;;8.93;6.40;;;;;;;;;;1721892;82;21003;-66
2022/08/17 15:21:45;;;;;;;29.35;25.80;;;;;;;;;;1723838;82;21024;-67